createdAt,value
2022-10-23T00:01:43.437Z,19.85
2022-10-23T00:04:14.755Z,18.60
2022-10-23T00:06:43.365Z,18.65
2022-10-23T00:09:13.432Z,16.50
2022-10-23T00:11:42.288Z,19.05
2022-10-23T00:14:09.592Z,16.70
2022-10-23T00:16:38.118Z,25.90
2022-10-23T00:19:07.921Z,18.80
2022-10-23T00:21:37.408Z,20.45
2022-10-23T00:24:05.725Z,27.10
2022-10-23T00:26:33.197Z,22.98
2022-10-23T00:29:00.579Z,15.30
2022-10-23T00:31:27.755Z,20.10
2022-10-23T00:33:54.979Z,16.98
2022-10-23T00:36:22.515Z,16.75
2022-10-23T00:38:51.090Z,14.05
2022-10-23T00:41:24.751Z,15.40
2022-10-23T00:44:32.525Z,17.45
2022-10-23T00:47:00.716Z,14.82
2022-10-23T00:49:32.500Z,15.63
2022-10-23T00:52:07.481Z,14.32
2022-10-23T00:54:39.383Z,13.80
2022-10-23T00:57:11.393Z,12.77
2022-10-23T00:59:39.565Z,12.55
2022-10-23T01:02:07.172Z,11.15
2022-10-23T01:04:35.158Z,12.82
2022-10-23T01:07:02.296Z,9.02
2022-10-23T01:09:43.975Z,10.52
2022-10-23T01:12:50.121Z,10.35
2022-10-23T01:16:07.663Z,7.68
2022-10-23T01:19:03.283Z,9.90
2022-10-23T01:21:44.145Z,10.98
2022-10-23T01:24:30.123Z,11.02
2022-10-23T01:27:24.869Z,12.98
2022-10-23T01:30:07.199Z,10.37
2022-10-23T01:32:44.145Z,11.93
2022-10-23T01:35:18.999Z,16.25
2022-10-23T01:37:58.295Z,14.52
2022-10-23T01:40:39.575Z,12.70
2022-10-23T01:43:41.208Z,10.35
2022-10-23T01:46:14.456Z,7.57
2022-10-23T01:48:46.758Z,11.18
2022-10-23T01:51:16.999Z,13.18
2022-10-23T01:53:48.938Z,13.95
2022-10-23T01:56:23.213Z,11.23
2022-10-23T01:58:55.578Z,17.17
2022-10-23T02:01:29.075Z,11.57
2022-10-23T02:06:27.276Z,15.15
2022-10-23T02:08:54.705Z,11.90
2022-10-23T02:11:22.540Z,22.17
2022-10-23T02:13:56.054Z,19.83
2022-10-23T02:16:32.344Z,18.15
2022-10-23T02:19:14.285Z,17.25
2022-10-23T02:21:54.448Z,17.00
2022-10-23T02:24:51.448Z,13.88
2022-10-23T02:27:35.887Z,11.98
2022-10-23T02:30:09.532Z,15.18
2022-10-23T02:32:40.793Z,15.43
2022-10-23T02:35:09.192Z,12.02
2022-10-23T02:37:37.532Z,12.77
2022-10-23T02:40:07.475Z,14.88
2022-10-23T02:43:17.052Z,12.98
2022-10-23T02:46:17.311Z,11.90
2022-10-23T02:49:14.399Z,12.30
2022-10-23T02:52:13.130Z,11.77
2022-10-23T02:54:40.607Z,9.77
2022-10-23T02:58:04.679Z,11.93
2022-10-23T03:00:35.546Z,14.10
2022-10-23T03:03:11.616Z,14.40
2022-10-23T03:05:42.099Z,13.18
2022-10-23T03:08:10.796Z,9.75
2022-10-23T03:10:38.355Z,12.85
2022-10-23T03:13:07.470Z,11.68
2022-10-23T03:15:40.850Z,11.17
2022-10-23T03:18:12.466Z,12.75
2022-10-23T03:20:41.688Z,10.77
2022-10-23T03:23:13.117Z,9.68
2022-10-23T03:25:40.400Z,10.88
2022-10-23T03:28:08.434Z,10.57
2022-10-23T03:30:37.108Z,12.95
2022-10-23T03:33:04.479Z,12.70
2022-10-23T03:35:35.728Z,12.70
2022-10-23T03:38:04.130Z,13.95
2022-10-23T03:40:31.490Z,10.50
2022-10-23T03:42:59.504Z,11.43
2022-10-23T03:45:27.205Z,9.10
2022-10-23T03:47:54.559Z,9.52
2022-10-23T03:50:22.074Z,8.30
2022-10-23T03:52:49.565Z,12.07
2022-10-23T03:55:16.953Z,9.98
2022-10-23T03:57:44.213Z,10.45
2022-10-23T04:00:12.022Z,11.88
2022-10-23T04:02:47.967Z,10.93
2022-10-23T04:05:16.507Z,16.15
2022-10-23T04:07:53.833Z,12.38
2022-10-23T04:10:21.223Z,10.25
2022-10-23T04:12:48.981Z,13.43
2022-10-23T04:15:17.807Z,10.75
2022-10-23T04:17:48.961Z,13.65
2022-10-23T04:20:16.487Z,11.63
2022-10-23T04:22:44.107Z,13.45
2022-10-23T04:25:13.356Z,11.90
2022-10-23T04:27:41.204Z,11.15
2022-10-23T04:30:09.620Z,10.95
2022-10-23T04:32:38.724Z,11.18
2022-10-23T04:35:06.820Z,9.90
2022-10-23T04:37:35.480Z,11.10
2022-10-23T04:40:04.461Z,7.90
2022-10-23T04:42:37.057Z,14.38
2022-10-23T04:45:06.305Z,8.43
2022-10-23T04:47:34.496Z,9.15
2022-10-23T04:50:04.023Z,13.43
2022-10-23T04:52:56.370Z,10.98
2022-10-23T04:55:59.053Z,8.60
2022-10-23T04:58:36.488Z,11.80
2022-10-23T05:01:04.179Z,11.20
2022-10-23T05:03:32.024Z,8.75
2022-10-23T05:06:00.041Z,12.52
2022-10-23T05:08:30.969Z,11.68
2022-10-23T05:11:13.254Z,9.07
2022-10-23T05:13:45.209Z,9.32
2022-10-23T05:16:28.732Z,9.00
2022-10-23T05:18:56.866Z,9.10
2022-10-23T05:21:29.573Z,10.65
2022-10-23T05:24:01.207Z,11.80
2022-10-23T05:26:31.301Z,8.73
2022-10-23T05:29:03.059Z,11.60
2022-10-23T05:31:30.576Z,9.95
2022-10-23T05:34:06.823Z,9.70
2022-10-23T05:36:36.564Z,12.27
2022-10-23T05:39:05.244Z,12.38
2022-10-23T05:41:32.825Z,9.98
2022-10-23T05:43:59.999Z,8.27
2022-10-23T05:46:45.862Z,9.88
2022-10-23T05:49:20.119Z,7.18
2022-10-23T05:52:14.316Z,7.70
2022-10-23T05:55:02.270Z,8.48
2022-10-23T05:58:05.383Z,7.38
2022-10-23T06:00:55.939Z,9.75
2022-10-23T06:03:52.652Z,7.07
2022-10-23T06:06:23.714Z,10.40
2022-10-23T06:08:51.052Z,12.32
2022-10-23T06:11:21.089Z,12.70
2022-10-23T06:14:01.369Z,11.07
2022-10-23T06:16:28.836Z,10.95
2022-10-23T06:18:57.784Z,12.20
2022-10-23T06:21:25.345Z,8.60
2022-10-23T06:23:53.476Z,12.38
2022-10-23T06:26:46.774Z,13.25
2022-10-23T06:29:21.355Z,9.48
2022-10-23T06:31:50.221Z,15.85
2022-10-23T06:34:18.001Z,11.35
2022-10-23T06:36:46.627Z,9.85
2022-10-23T06:39:36.202Z,10.93
2022-10-23T06:42:22.523Z,8.88
2022-10-23T06:44:56.242Z,13.98
2022-10-23T06:47:42.348Z,11.85
2022-10-23T06:50:32.906Z,12.38
2022-10-23T06:53:06.676Z,10.95
2022-10-23T06:55:40.084Z,12.18
2022-10-23T06:58:11.013Z,15.48
2022-10-23T07:00:53.936Z,12.30
2022-10-23T07:03:22.076Z,11.70
2022-10-23T07:05:49.763Z,10.15
2022-10-23T07:08:17.149Z,12.68
2022-10-23T07:10:48.169Z,10.23
2022-10-23T07:13:19.616Z,11.98
2022-10-23T07:16:21.752Z,12.98
2022-10-23T07:18:58.898Z,8.82
2022-10-23T07:21:32.240Z,8.48
2022-10-23T07:24:16.639Z,11.20
2022-10-23T07:26:45.091Z,9.82
2022-10-23T07:29:15.316Z,10.75
2022-10-23T07:31:44.095Z,11.27
2022-10-23T07:34:37.691Z,9.65
2022-10-23T07:37:22.103Z,11.17
2022-10-23T07:39:49.657Z,13.90
2022-10-23T07:42:17.085Z,11.35
2022-10-23T07:44:44.593Z,11.30
2022-10-23T07:47:12.630Z,11.60
2022-10-23T07:49:43.867Z,11.15
2022-10-23T07:52:11.097Z,9.18
2022-10-23T07:54:58.393Z,8.45
2022-10-23T07:57:30.404Z,8.57
2022-10-23T08:00:18.155Z,6.25
2022-10-23T08:02:55.377Z,7.47
2022-10-23T08:05:24.026Z,5.20
2022-10-23T08:07:59.457Z,7.72
2022-10-23T08:10:26.853Z,10.07
2022-10-23T08:12:54.301Z,4.90
2022-10-23T08:15:32.023Z,5.80
2022-10-23T08:18:05.891Z,2.65
2022-10-23T08:20:46.611Z,4.45
2022-10-23T08:23:17.155Z,4.60
2022-10-23T08:25:45.837Z,2.63
2022-10-23T08:28:17.395Z,4.88
2022-10-23T08:30:54.641Z,4.80
2022-10-23T08:33:22.662Z,4.07
2022-10-23T08:35:50.392Z,3.45
2022-10-23T08:38:25.353Z,6.68
2022-10-23T08:40:54.121Z,5.68
2022-10-23T08:43:49.010Z,4.63
2022-10-23T08:46:40.767Z,3.70
2022-10-23T08:49:32.710Z,5.40
2022-10-23T08:52:22.392Z,2.60
2022-10-23T08:54:57.652Z,2.50
2022-10-23T08:57:33.495Z,6.60
2022-10-23T09:00:06.988Z,2.72
2022-10-23T09:02:41.651Z,4.05
2022-10-23T09:05:20.498Z,3.42
2022-10-23T09:08:09.297Z,3.03
2022-10-23T09:10:58.191Z,6.75
2022-10-23T09:13:48.579Z,4.32
2022-10-23T09:17:02.102Z,4.15
2022-10-23T09:19:31.472Z,6.32
2022-10-23T09:21:59.769Z,5.00
2022-10-23T09:24:31.914Z,3.70
2022-10-23T09:27:00.838Z,6.72
2022-10-23T09:29:29.270Z,5.53
2022-10-23T09:31:59.344Z,4.90
2022-10-23T09:34:29.884Z,3.40
2022-10-23T09:37:00.219Z,2.75
2022-10-23T09:39:33.286Z,5.25
2022-10-23T09:42:02.744Z,7.75
2022-10-23T09:44:32.742Z,8.93
2022-10-23T09:47:06.267Z,7.40
2022-10-23T09:49:35.006Z,10.07
2022-10-23T09:52:08.367Z,7.78
2022-10-23T09:55:04.409Z,8.38
2022-10-23T09:57:43.151Z,8.82
2022-10-23T10:00:23.729Z,9.23
2022-10-23T10:03:02.931Z,9.13
2022-10-23T10:05:45.053Z,7.57
2022-10-23T10:08:29.057Z,4.40
2022-10-23T10:11:20.838Z,9.15
2022-10-23T10:14:12.959Z,5.47
2022-10-23T10:16:59.045Z,4.88
2022-10-23T10:19:32.433Z,8.18
2022-10-23T10:22:35.945Z,8.07
2022-10-23T10:25:18.523Z,6.82
2022-10-23T10:28:01.073Z,6.40
2022-10-23T10:30:47.642Z,7.00
2022-10-23T10:33:27.450Z,10.70
2022-10-23T10:36:31.474Z,15.55
2022-10-23T10:39:04.208Z,5.65
2022-10-23T10:41:55.590Z,5.95
2022-10-23T10:44:38.308Z,6.65
2022-10-23T10:47:33.738Z,5.18
2022-10-23T10:50:01.112Z,6.60
2022-10-23T10:53:15.000Z,4.63
2022-10-23T10:55:42.733Z,2.80
2022-10-23T10:58:34.380Z,3.63
2022-10-23T11:01:06.601Z,4.90
2022-10-23T11:03:42.820Z,6.15
2022-10-23T11:06:16.251Z,5.20
2022-10-23T11:08:56.416Z,7.55
2022-10-23T11:11:31.086Z,8.30
2022-10-23T11:13:58.729Z,6.30
2022-10-23T11:16:30.907Z,6.13
2022-10-23T11:19:20.056Z,6.05
2022-10-23T11:22:18.243Z,4.50
2022-10-23T11:24:58.628Z,4.75
2022-10-23T11:27:44.339Z,7.70
2022-10-23T11:30:21.741Z,5.85
2022-10-23T11:33:28.193Z,6.15
2022-10-23T11:36:04.638Z,4.88
2022-10-23T11:38:35.571Z,4.80
2022-10-23T11:41:07.286Z,8.10
2022-10-23T11:43:58.420Z,7.75
2022-10-23T11:46:28.913Z,5.53
2022-10-23T11:48:57.424Z,6.75
2022-10-23T11:51:41.305Z,7.97
2022-10-23T11:54:28.828Z,5.93
2022-10-23T11:57:10.635Z,5.82
2022-10-23T11:59:55.718Z,7.60
2022-10-23T12:02:41.967Z,5.88
2022-10-23T12:05:40.625Z,4.38
2022-10-23T12:08:29.701Z,4.22
2022-10-23T12:10:57.402Z,7.80
2022-10-23T12:13:32.783Z,8.52
2022-10-23T12:16:01.720Z,6.38
2022-10-23T12:18:29.045Z,5.07
2022-10-23T12:21:02.012Z,9.35
2022-10-23T12:23:37.190Z,6.15
2022-10-23T12:26:07.526Z,5.53
2022-10-23T12:28:47.632Z,9.63
2022-10-23T12:31:52.120Z,8.77
2022-10-23T12:34:38.193Z,9.95
2022-10-23T12:37:41.176Z,5.85
2022-10-23T12:40:10.602Z,6.13
2022-10-23T12:42:39.941Z,5.68
2022-10-23T12:45:24.259Z,7.22
2022-10-23T12:47:52.967Z,9.02
2022-10-23T12:50:26.269Z,5.85
2022-10-23T12:53:01.191Z,7.82
2022-10-23T12:55:46.829Z,5.07
2022-10-23T12:58:32.195Z,8.05
2022-10-23T13:01:05.506Z,6.13
2022-10-23T13:03:35.523Z,5.90
2022-10-23T13:06:03.840Z,10.82
2022-10-23T13:08:48.242Z,6.22
2022-10-23T13:11:34.401Z,9.43
2022-10-23T13:14:13.247Z,11.52
2022-10-23T13:16:40.529Z,8.05
2022-10-23T13:19:22.690Z,5.82
2022-10-23T13:21:50.090Z,7.38
2022-10-23T13:24:22.081Z,4.78
2022-10-23T13:26:49.477Z,5.78
2022-10-23T13:29:34.002Z,5.22
2022-10-23T13:32:24.374Z,5.57
2022-10-23T13:35:03.954Z,6.90
2022-10-23T13:37:45.707Z,5.05
2022-10-23T13:40:28.076Z,5.30
2022-10-23T13:42:57.513Z,8.68
2022-10-23T13:45:26.979Z,5.45
2022-10-23T13:47:54.290Z,5.55
2022-10-23T13:50:22.015Z,6.70
2022-10-23T13:52:49.515Z,6.57
2022-10-23T13:55:24.359Z,6.05
2022-10-23T13:57:52.097Z,7.00
2022-10-23T14:00:20.575Z,6.65
2022-10-23T14:02:48.088Z,6.70
2022-10-23T14:05:15.617Z,5.57
2022-10-23T14:07:43.279Z,7.82
2022-10-23T14:10:10.707Z,5.43
2022-10-23T14:12:41.215Z,5.15
2022-10-23T14:15:10.287Z,4.97
2022-10-23T14:17:38.236Z,5.78
2022-10-23T14:20:06.592Z,7.32
2022-10-23T14:22:34.291Z,6.22
2022-10-23T14:25:02.021Z,8.07
2022-10-23T14:27:30.718Z,8.73
2022-10-23T14:30:00.501Z,6.80
2022-10-23T14:32:27.807Z,6.65
2022-10-23T14:34:55.451Z,8.88
2022-10-23T14:37:22.892Z,10.48
2022-10-23T14:39:50.517Z,8.40
2022-10-23T14:42:18.207Z,7.38
2022-10-23T14:44:45.464Z,7.97
2022-10-23T14:47:12.686Z,15.52
2022-10-23T14:49:40.494Z,9.25
2022-10-23T14:52:08.270Z,10.98
2022-10-23T14:54:36.872Z,18.65
2022-10-23T14:57:04.581Z,16.38
2022-10-23T14:59:31.923Z,13.77
2022-10-23T15:01:59.186Z,14.32
2022-10-23T15:04:26.851Z,17.70
2022-10-23T15:06:54.507Z,10.75
2022-10-23T15:09:21.815Z,11.77
2022-10-23T15:11:49.478Z,10.65
2022-10-23T15:14:16.714Z,9.50
2022-10-23T15:16:44.054Z,6.32
2022-10-23T15:19:17.135Z,6.30
2022-10-23T15:21:47.382Z,8.48
2022-10-23T15:24:16.271Z,7.07
2022-10-23T15:26:44.211Z,6.85
2022-10-23T15:29:12.534Z,7.75
2022-10-23T15:31:43.589Z,8.55
2022-10-23T15:34:14.667Z,9.50
2022-10-23T15:36:42.948Z,7.47
2022-10-23T15:39:12.606Z,8.90
2022-10-23T15:41:41.900Z,8.60
2022-10-23T15:44:13.326Z,8.23
2022-10-23T15:46:40.892Z,10.75
2022-10-23T15:49:12.478Z,9.50
2022-10-23T15:51:41.130Z,8.32
2022-10-23T15:54:12.043Z,10.32
2022-10-23T15:56:39.672Z,7.70
2022-10-23T15:59:06.903Z,13.77
2022-10-23T16:01:34.502Z,6.93
2022-10-23T16:04:02.289Z,6.22
2022-10-23T16:06:30.115Z,8.70
2022-10-23T16:08:57.543Z,8.90
2022-10-23T16:11:30.542Z,5.95
2022-10-23T16:13:59.645Z,9.38
2022-10-23T16:16:30.302Z,8.38
2022-10-23T16:19:02.767Z,6.60
2022-10-23T16:21:36.289Z,6.97
2022-10-23T16:24:06.942Z,7.03
2022-10-23T16:26:35.328Z,7.60
2022-10-23T16:29:05.991Z,7.90
2022-10-23T16:31:34.102Z,7.25
2022-10-23T16:34:03.006Z,6.45
2022-10-23T16:36:31.632Z,5.60
2022-10-23T16:39:10.300Z,4.93
2022-10-23T16:41:56.463Z,6.70
2022-10-23T16:44:28.725Z,5.60
2022-10-23T16:46:58.243Z,5.53
2022-10-23T16:49:25.420Z,6.43
2022-10-23T16:51:52.577Z,5.63
2022-10-23T16:54:20.688Z,4.18
2022-10-23T16:56:48.713Z,4.63
2022-10-23T16:59:16.267Z,4.80
2022-10-23T17:01:44.020Z,3.75
2022-10-23T17:04:11.567Z,4.00
2022-10-23T17:06:38.931Z,7.40
2022-10-23T17:09:06.877Z,6.20
2022-10-23T17:11:39.965Z,5.30
2022-10-23T17:14:11.853Z,4.50
2022-10-23T17:16:47.372Z,4.25
2022-10-23T17:19:33.047Z,6.38
2022-10-23T17:22:08.351Z,5.22
2022-10-23T17:24:35.746Z,5.53
2022-10-23T17:27:04.549Z,6.47
2022-10-23T17:29:32.218Z,9.20
2022-10-23T17:31:59.405Z,5.30
2022-10-23T17:34:26.666Z,7.65
2022-10-23T17:36:55.381Z,5.15
2022-10-23T17:39:25.274Z,5.90
2022-10-23T17:41:53.317Z,4.78
2022-10-23T17:44:20.987Z,5.95
2022-10-23T17:46:54.031Z,6.70
2022-10-23T17:49:22.226Z,5.25
2022-10-23T17:51:54.532Z,6.38
2022-10-23T17:54:22.559Z,5.28
2022-10-23T17:56:51.959Z,6.28
2022-10-23T17:59:19.863Z,7.85
2022-10-23T18:01:48.563Z,6.32
2022-10-23T18:04:18.875Z,9.75
2022-10-23T18:06:51.013Z,7.88
2022-10-23T18:09:19.336Z,10.77
2022-10-23T18:11:48.399Z,13.40
2022-10-23T18:14:20.469Z,11.90
2022-10-23T18:16:48.382Z,7.05
2022-10-23T18:19:18.537Z,6.63
2022-10-23T18:21:48.299Z,9.30
2022-10-23T18:24:18.671Z,6.93
2022-10-23T18:26:48.082Z,6.63
2022-10-23T18:29:17.668Z,7.57
2022-10-23T18:31:45.344Z,5.03
2022-10-23T18:34:17.764Z,8.77
2022-10-23T18:36:48.275Z,9.57
2022-10-23T18:39:17.802Z,6.20
2022-10-23T18:41:46.052Z,12.40
2022-10-23T18:44:19.819Z,9.88
2022-10-23T18:46:48.735Z,7.20
2022-10-23T18:49:18.895Z,5.97
2022-10-23T18:51:47.009Z,8.63
2022-10-23T18:54:17.556Z,7.13
2022-10-23T18:56:44.960Z,9.02
2022-10-23T18:59:16.446Z,6.72
2022-10-23T19:01:44.396Z,5.50
2022-10-23T19:04:14.266Z,5.72
2022-10-23T19:06:43.494Z,6.75
2022-10-23T19:09:14.159Z,6.32
2022-10-23T19:11:42.632Z,5.28
2022-10-23T19:14:13.183Z,6.65
2022-10-23T19:16:54.147Z,7.25
2022-10-23T19:19:26.460Z,7.13
2022-10-23T19:21:54.758Z,7.10
2022-10-23T19:24:38.086Z,6.97
2022-10-23T19:27:06.160Z,7.20
2022-10-23T19:29:37.502Z,6.72
2022-10-23T19:32:05.049Z,7.28
2022-10-23T19:34:32.329Z,7.57
2022-10-23T19:37:00.112Z,10.40
2022-10-23T19:39:27.489Z,7.43
2022-10-23T19:41:55.010Z,6.70
2022-10-23T19:44:22.467Z,6.75
2022-10-23T19:46:51.113Z,6.95
2022-10-23T19:49:20.639Z,7.65
2022-10-23T19:51:51.286Z,5.60
2022-10-23T19:54:20.734Z,6.05
2022-10-23T19:56:48.738Z,9.43
2022-10-23T19:59:16.480Z,7.30
2022-10-23T20:01:47.801Z,7.82
2022-10-23T20:04:17.642Z,8.18
2022-10-23T20:06:45.950Z,6.15
2022-10-23T20:09:13.407Z,7.43
2022-10-23T20:11:41.167Z,6.47
2022-10-23T20:14:08.694Z,6.72
2022-10-23T20:16:38.501Z,7.00
2022-10-23T20:19:08.960Z,8.15
2022-10-23T20:21:37.703Z,7.13
2022-10-23T20:24:05.784Z,6.63
2022-10-23T20:26:33.619Z,9.38
2022-10-23T20:29:01.101Z,8.45
2022-10-23T20:31:28.577Z,6.15
2022-10-23T20:33:57.040Z,7.00
2022-10-23T20:36:27.516Z,5.05
2022-10-23T20:38:56.612Z,5.60
2022-10-23T20:41:27.154Z,7.88
2022-10-23T20:43:58.136Z,8.35
2022-10-23T20:46:26.923Z,6.35
2022-10-23T20:48:54.735Z,6.05
2022-10-23T20:51:23.742Z,5.25
2022-10-23T20:53:53.195Z,5.20
2022-10-23T20:56:24.201Z,6.95
2022-10-23T20:58:51.369Z,5.05
2022-10-23T21:01:19.118Z,7.93
2022-10-23T21:03:51.525Z,4.55
2022-10-23T21:06:19.872Z,6.75
2022-10-23T21:08:48.625Z,5.82
2022-10-23T21:11:17.317Z,5.65
2022-10-23T21:13:45.357Z,5.95
2022-10-23T21:16:16.781Z,6.25
2022-10-23T21:18:46.652Z,5.78
2022-10-23T21:21:17.591Z,5.75
2022-10-23T21:23:50.020Z,6.78
2022-10-23T21:26:21.297Z,7.82
2022-10-23T21:28:56.090Z,6.53
2022-10-23T21:31:38.685Z,5.65
2022-10-23T21:34:06.221Z,4.97
2022-10-23T21:36:48.242Z,5.35
2022-10-23T21:39:22.602Z,4.72
2022-10-23T21:41:49.944Z,4.47
2022-10-23T21:44:17.624Z,7.60
2022-10-23T21:46:46.469Z,4.15
2022-10-23T21:49:13.783Z,5.47
2022-10-23T21:51:41.165Z,4.78
2022-10-23T21:54:15.066Z,4.30
2022-10-23T21:56:48.114Z,6.78
2022-10-23T21:59:19.964Z,5.45
2022-10-23T22:01:48.908Z,4.80
2022-10-23T22:04:18.308Z,5.82
2022-10-23T22:06:47.627Z,6.35
2022-10-23T22:09:19.613Z,6.95
2022-10-23T22:11:49.878Z,5.35
2022-10-23T22:14:17.330Z,5.43
2022-10-23T22:16:45.727Z,4.95
2022-10-23T22:19:14.929Z,5.63
2022-10-23T22:21:42.646Z,5.60
2022-10-23T22:24:10.223Z,4.70
2022-10-23T22:26:40.903Z,4.85
2022-10-23T22:29:11.900Z,5.10
2022-10-23T22:31:43.019Z,4.85
2022-10-23T22:34:27.141Z,5.22
2022-10-23T22:37:03.185Z,6.78
2022-10-23T22:39:30.387Z,4.75
2022-10-23T22:41:57.672Z,4.55
2022-10-23T22:44:25.178Z,4.85
2022-10-23T22:46:53.598Z,4.95
2022-10-23T22:49:22.461Z,4.95
2022-10-23T22:51:49.712Z,4.63
2022-10-23T22:54:17.184Z,3.47
2022-10-23T22:56:44.390Z,4.28
2022-10-23T22:59:12.058Z,3.65
2022-10-23T23:01:43.069Z,3.58
2022-10-23T23:07:11.768Z,3.92
2022-10-23T23:09:44.033Z,4.90
2022-10-23T23:12:13.915Z,3.40
2022-10-23T23:14:42.056Z,4.40
2022-10-23T23:17:09.938Z,3.65
2022-10-23T23:19:38.109Z,3.28
2022-10-23T23:22:06.499Z,4.97
2022-10-23T23:24:34.585Z,4.15
2022-10-23T23:27:01.714Z,6.38
2022-10-23T23:29:29.898Z,6.32
2022-10-23T23:31:57.160Z,5.63
2022-10-23T23:34:24.959Z,7.63
2022-10-23T23:36:52.263Z,5.45
2022-10-23T23:39:19.718Z,7.82
2022-10-23T23:41:46.965Z,9.38
2022-10-23T23:44:15.130Z,8.45
2022-10-23T23:46:42.486Z,5.80
2022-10-23T23:49:13.281Z,8.93
2022-10-23T23:51:42.061Z,7.80
2022-10-23T23:54:10.447Z,8.13
2022-10-23T23:56:39.479Z,7.38
2022-10-23T23:59:07.021Z,7.03
